Manhattan, Indiana
Current Conditions -  °F | °C
As of 4:55 PM on Thursday 27 Nov 2014 (Local Time) from K4I7 Reporting Station
Light Snow Light Snow  
Wind Chill: 23°   Ceiling: 3100
Heat Index: 28°   Visibility: 10mi
Dew Point: 21°   Wind: 5mph
Humidity: 74%   Direction: 270°W
Pressure: 30.38"   Gusts: NA
Location:  39.6767°N, 86.9214°W
Report Text: K4I7 272155Z AUTO 27004KT 10SM -SN SCT020 OVC031 M02/M06 A3038 RMK AO2
Loading
Personal Weather Stations






























Interactive Weather Map New forecast layout! Learn more

10-Day Weather Forecast

Advertisements
Track Severe Weather on mobile